createdAt,value
2022-09-04T00:02:15.886Z,4.85
2022-09-04T00:05:24.497Z,4.45
2022-09-04T00:08:03.077Z,4.50
2022-09-04T00:10:45.991Z,3.45
2022-09-04T00:13:26.216Z,4.65
2022-09-04T00:16:01.110Z,4.10
2022-09-04T00:18:33.722Z,4.45
2022-09-04T00:21:12.340Z,5.32
2022-09-04T00:23:50.498Z,4.78
2022-09-04T00:26:38.515Z,4.10
2022-09-04T00:29:49.907Z,3.90
2022-09-04T00:32:54.912Z,3.88
2022-09-04T00:35:55.284Z,4.80
2022-09-04T00:38:33.542Z,4.30
2022-09-04T00:41:21.670Z,3.53
2022-09-04T00:44:07.543Z,4.30
2022-09-04T00:47:05.213Z,4.60
2022-09-04T00:49:47.606Z,3.55
2022-09-04T00:52:36.915Z,4.40
2022-09-04T00:55:40.645Z,4.97
2022-09-04T00:58:21.532Z,5.00
2022-09-04T01:00:49.440Z,4.82
2022-09-04T01:03:25.016Z,5.18
2022-09-04T01:08:56.085Z,5.95
2022-09-04T01:12:00.998Z,5.47
2022-09-04T01:14:39.312Z,8.52
2022-09-04T01:17:43.399Z,6.22
2022-09-04T01:20:26.578Z,6.80
2022-09-04T01:23:02.144Z,6.13
2022-09-04T01:25:57.848Z,5.03
2022-09-04T01:28:39.677Z,4.32
2022-09-04T01:31:23.223Z,4.72
2022-09-04T01:33:54.888Z,3.90
2022-09-04T01:36:50.169Z,5.13
2022-09-04T01:39:21.064Z,4.47
2022-09-04T01:42:02.163Z,4.22
2022-09-04T01:44:30.098Z,3.85
2022-09-04T01:47:02.789Z,4.40
2022-09-04T01:49:47.988Z,4.90
2022-09-04T01:52:23.605Z,4.78
2022-09-04T01:55:08.141Z,3.53
2022-09-04T01:57:34.582Z,5.18
2022-09-04T02:00:01.011Z,3.85
2022-09-04T02:02:56.843Z,3.33
2022-09-04T02:05:30.025Z,2.85
2022-09-04T02:08:15.164Z,2.63
2022-09-04T02:10:44.818Z,2.97
2022-09-04T02:13:44.922Z,2.25
2022-09-04T02:16:31.149Z,2.28
2022-09-04T02:19:12.196Z,2.42
2022-09-04T02:21:50.848Z,2.58
2022-09-04T02:24:41.815Z,2.70
2022-09-04T02:27:22.013Z,3.40
2022-09-04T02:30:00.637Z,3.15
2022-09-04T02:32:42.651Z,3.20
2022-09-04T02:35:31.032Z,3.03
2022-09-04T02:41:04.039Z,2.25
2022-09-04T02:44:06.374Z,2.08
2022-09-04T02:47:07.689Z,2.10
2022-09-04T02:50:10.083Z,2.42
2022-09-04T02:53:10.369Z,2.60
2022-09-04T02:55:56.391Z,2.38
2022-09-04T02:58:29.194Z,2.60
2022-09-04T03:01:22.423Z,2.45
2022-09-04T03:04:01.348Z,2.50
2022-09-04T03:07:03.661Z,5.95
2022-09-04T03:09:42.098Z,2.90
2022-09-04T03:14:52.550Z,3.38
2022-09-04T03:17:33.537Z,3.65
2022-09-04T03:20:07.750Z,4.60
2022-09-04T03:22:43.849Z,5.20
2022-09-04T03:25:44.588Z,6.82
2022-09-04T03:28:25.178Z,5.32
2022-09-04T03:30:54.378Z,5.28
2022-09-04T03:33:29.646Z,6.88
2022-09-04T03:36:14.220Z,7.53
2022-09-04T03:39:04.470Z,5.70
2022-09-04T03:41:44.327Z,6.60
2022-09-04T03:44:20.777Z,5.90
2022-09-04T03:47:06.190Z,5.30
2022-09-04T03:50:04.883Z,5.57
2022-09-04T03:53:00.943Z,4.93
2022-09-04T03:55:36.539Z,6.10
2022-09-04T03:58:14.398Z,5.47
2022-09-04T04:00:57.943Z,5.85
2022-09-04T04:04:14.571Z,7.03
2022-09-04T04:06:51.330Z,6.78
2022-09-04T04:09:43.874Z,5.45
2022-09-04T04:12:29.932Z,4.57
2022-09-04T04:15:07.196Z,6.00
2022-09-04T04:18:04.339Z,6.78
2022-09-04T04:21:02.131Z,10.48
2022-09-04T04:24:12.458Z,11.32
2022-09-04T04:26:59.439Z,13.15
2022-09-04T04:29:41.221Z,11.93
2022-09-04T04:32:16.680Z,13.48
2022-09-04T04:35:04.552Z,12.50
2022-09-04T04:37:51.804Z,12.68
2022-09-04T04:40:47.890Z,11.35
2022-09-04T04:43:26.521Z,11.95
2022-09-04T04:46:25.504Z,10.35
2022-09-04T04:48:59.106Z,9.40
2022-09-04T04:51:39.320Z,9.93
2022-09-04T04:54:38.166Z,9.35
2022-09-04T04:57:20.886Z,8.60
2022-09-04T05:00:25.299Z,8.23
2022-09-04T05:03:27.182Z,7.25
2022-09-04T05:06:36.391Z,7.60
2022-09-04T05:09:36.522Z,6.43
2022-09-04T05:12:21.252Z,6.03
2022-09-04T05:14:59.823Z,5.70
2022-09-04T05:17:58.058Z,4.05
2022-09-04T05:22:56.896Z,3.63
2022-09-04T05:25:48.279Z,3.30
2022-09-04T05:28:32.841Z,3.17
2022-09-04T05:31:10.200Z,3.00
2022-09-04T05:34:07.429Z,3.45
2022-09-04T05:36:45.943Z,3.25
2022-09-04T05:41:39.121Z,2.95
2022-09-04T05:44:27.447Z,3.60
2022-09-04T05:49:31.339Z,3.33
2022-09-04T05:52:30.831Z,3.35
2022-09-04T05:55:09.636Z,3.53
2022-09-04T05:57:52.594Z,3.25
2022-09-04T06:00:20.326Z,3.15
2022-09-04T06:03:05.088Z,3.10
2022-09-04T06:05:50.971Z,3.40
2022-09-04T06:08:48.563Z,3.10
2022-09-04T06:11:42.900Z,3.08
2022-09-04T06:14:47.135Z,3.72
2022-09-04T06:17:30.691Z,2.92
2022-09-04T06:20:10.431Z,2.60
2022-09-04T06:22:36.868Z,3.05
2022-09-04T06:25:16.565Z,3.20
2022-09-04T06:28:20.498Z,2.80
2022-09-04T06:30:52.278Z,3.13
2022-09-04T06:33:32.644Z,3.35
2022-09-04T06:36:02.263Z,3.42
2022-09-04T06:38:53.327Z,3.72
2022-09-04T06:41:25.801Z,3.15
2022-09-04T06:44:01.380Z,3.00
2022-09-04T06:46:43.030Z,3.10
2022-09-04T06:49:24.171Z,3.03
2022-09-04T06:52:23.474Z,2.95
2022-09-04T06:55:09.917Z,2.83
2022-09-04T06:58:24.721Z,2.72
2022-09-04T07:01:08.843Z,2.72
2022-09-04T07:03:38.418Z,2.95
2022-09-04T07:06:32.643Z,2.85
2022-09-04T07:09:31.345Z,2.70
2022-09-04T07:12:16.429Z,2.60
2022-09-04T07:15:30.176Z,3.30
2022-09-04T07:18:20.303Z,2.95
2022-09-04T07:20:59.531Z,2.72
2022-09-04T07:23:35.940Z,2.95
2022-09-04T07:26:26.878Z,2.90
2022-09-04T07:29:12.320Z,2.63
2022-09-04T07:31:46.626Z,2.70
2022-09-04T07:34:39.375Z,2.72
2022-09-04T07:37:10.969Z,2.88
2022-09-04T07:39:57.077Z,3.00
2022-09-04T07:43:02.600Z,3.10
2022-09-04T07:45:40.053Z,2.50
2022-09-04T07:48:34.252Z,2.77
2022-09-04T07:51:10.853Z,2.58
2022-09-04T07:53:47.717Z,2.20
2022-09-04T07:56:23.346Z,2.55
2022-09-04T07:59:02.851Z,2.38
2022-09-04T08:02:08.824Z,2.08
2022-09-04T08:04:38.228Z,2.30
2022-09-04T08:07:12.263Z,2.38
2022-09-04T08:09:44.738Z,2.00
2022-09-04T08:12:30.262Z,2.05
2022-09-04T08:15:21.954Z,2.10
2022-09-04T08:18:01.523Z,1.70
2022-09-04T08:21:15.786Z,1.90
2022-09-04T08:24:13.101Z,1.95
2022-09-04T08:27:04.627Z,1.73
2022-09-04T08:29:49.808Z,1.90
2022-09-04T08:32:38.223Z,1.95
2022-09-04T08:35:45.029Z,1.90
2022-09-04T08:38:20.586Z,1.92
2022-09-04T08:40:58.830Z,1.90
2022-09-04T08:46:13.525Z,2.08
2022-09-04T08:49:09.397Z,2.45
2022-09-04T08:51:47.473Z,1.90
2022-09-04T08:54:39.229Z,2.00
2022-09-04T08:57:22.538Z,2.58
2022-09-04T09:00:11.225Z,2.53
2022-09-04T09:02:56.078Z,2.25
2022-09-04T09:05:56.720Z,2.33
2022-09-04T09:08:44.422Z,2.50
2022-09-04T09:11:45.105Z,2.20
2022-09-04T09:14:43.850Z,2.10
2022-09-04T09:17:12.420Z,1.90
2022-09-04T09:19:46.383Z,2.95
2022-09-04T09:22:15.870Z,2.47
2022-09-04T09:25:07.278Z,2.10
2022-09-04T09:27:53.302Z,2.25
2022-09-04T09:30:21.613Z,1.98
2022-09-04T09:33:11.444Z,2.28
2022-09-04T09:36:16.146Z,2.10
2022-09-04T09:39:04.128Z,2.13
2022-09-04T09:41:46.418Z,2.55
2022-09-04T09:44:15.589Z,2.60
2022-09-04T09:47:01.706Z,2.50
2022-09-04T09:49:53.612Z,2.80
2022-09-04T09:52:34.963Z,2.33
2022-09-04T09:55:52.700Z,3.08
2022-09-04T10:01:19.642Z,2.90
2022-09-04T10:04:11.657Z,2.20
2022-09-04T10:07:02.576Z,2.60
2022-09-04T10:09:50.803Z,2.60
2022-09-04T10:12:29.432Z,2.28
2022-09-04T10:15:21.679Z,2.42
2022-09-04T10:17:54.224Z,2.65
2022-09-04T10:20:39.223Z,2.50
2022-09-04T10:23:05.679Z,3.15
2022-09-04T10:25:50.513Z,2.50
2022-09-04T10:28:41.500Z,2.72
2022-09-04T10:31:24.028Z,2.83
2022-09-04T10:34:10.549Z,2.58
2022-09-04T10:36:46.235Z,2.10
2022-09-04T10:39:46.824Z,2.83
2022-09-04T10:42:39.649Z,2.92
2022-09-04T10:45:27.233Z,2.75
2022-09-04T10:48:13.266Z,2.90
2022-09-04T10:50:58.704Z,2.75
2022-09-04T10:53:39.001Z,2.88
2022-09-04T10:56:23.074Z,2.67
2022-09-04T10:59:09.789Z,2.55
2022-09-04T11:02:22.314Z,2.67
2022-09-04T11:05:17.554Z,2.60
2022-09-04T11:08:08.072Z,2.42
2022-09-04T11:10:46.071Z,2.45
2022-09-04T11:13:32.494Z,2.58
2022-09-04T11:16:42.313Z,2.70
2022-09-04T11:19:16.212Z,2.78
2022-09-04T11:22:27.432Z,2.58
2022-09-04T11:25:04.291Z,2.97
2022-09-04T11:27:33.917Z,3.00
2022-09-04T11:30:10.120Z,2.80
2022-09-04T11:33:04.995Z,2.70
2022-09-04T11:35:52.713Z,2.67
2022-09-04T11:39:16.490Z,3.00
2022-09-04T11:42:08.387Z,2.80
2022-09-04T11:44:46.220Z,2.72
2022-09-04T11:47:47.563Z,2.65
2022-09-04T11:50:20.348Z,3.00
2022-09-04T11:53:16.621Z,2.60
2022-09-04T11:56:17.016Z,2.55
2022-09-04T11:59:10.272Z,2.90
2022-09-04T12:02:04.532Z,2.72
2022-09-04T12:04:40.764Z,2.63
2022-09-04T12:07:45.877Z,3.13
2022-09-04T12:10:35.865Z,2.67
2022-09-04T12:13:41.118Z,2.90
2022-09-04T12:16:10.415Z,3.03
2022-09-04T12:18:44.821Z,2.97
2022-09-04T12:21:42.441Z,2.75
2022-09-04T12:24:15.059Z,2.78
2022-09-04T12:27:03.227Z,2.88
2022-09-04T12:32:30.961Z,2.72
2022-09-04T12:35:17.168Z,2.78
2022-09-04T12:38:09.705Z,2.88
2022-09-04T12:41:04.739Z,2.47
2022-09-04T12:43:47.177Z,2.80
2022-09-04T12:46:19.646Z,2.67
2022-09-04T12:48:49.192Z,2.72
2022-09-04T12:51:24.708Z,2.78
2022-09-04T12:54:24.890Z,2.28
2022-09-04T12:57:15.983Z,2.55
2022-09-04T12:59:48.226Z,2.58
2022-09-04T13:02:34.214Z,2.60
2022-09-04T13:05:15.146Z,2.55
2022-09-04T13:08:19.495Z,2.78
2022-09-04T13:11:00.132Z,2.95
2022-09-04T13:13:39.590Z,2.50
2022-09-04T13:16:06.049Z,2.72
2022-09-04T13:18:44.382Z,2.80
2022-09-04T13:21:17.236Z,2.55
2022-09-04T13:24:02.615Z,2.55
2022-09-04T13:26:48.124Z,2.53
2022-09-04T13:30:03.253Z,3.08
2022-09-04T13:33:11.274Z,2.58
2022-09-04T13:36:24.019Z,2.60
2022-09-04T13:39:13.914Z,3.00
2022-09-04T13:41:52.591Z,2.60
2022-09-04T13:44:32.432Z,2.42
2022-09-04T13:47:08.959Z,2.75
2022-09-04T13:49:56.398Z,2.60
2022-09-04T13:52:53.531Z,2.90
2022-09-04T13:55:24.000Z,2.83
2022-09-04T13:57:57.553Z,2.75
2022-09-04T14:00:32.088Z,2.60
2022-09-04T14:03:10.751Z,2.78
2022-09-04T14:05:38.168Z,2.30
2022-09-04T14:08:08.772Z,4.10
2022-09-04T14:10:37.951Z,2.72
2022-09-04T14:13:12.920Z,2.78
2022-09-04T14:16:06.677Z,2.83
2022-09-04T14:19:15.601Z,2.35
2022-09-04T14:22:16.680Z,2.30
2022-09-04T14:25:06.502Z,2.70
2022-09-04T14:27:52.218Z,2.35
2022-09-04T14:30:22.289Z,2.33
2022-09-04T14:32:57.834Z,2.70
2022-09-04T14:35:49.354Z,2.17
2022-09-04T14:38:35.302Z,2.38
2022-09-04T14:41:26.078Z,2.65
2022-09-04T14:44:26.952Z,2.28
2022-09-04T14:47:09.634Z,2.17
2022-09-04T14:49:51.953Z,1.90
2022-09-04T14:52:27.267Z,2.20
2022-09-04T14:54:57.983Z,2.45
2022-09-04T14:57:32.421Z,2.45
2022-09-04T15:00:01.868Z,2.13
2022-09-04T15:02:39.780Z,2.17
2022-09-04T15:05:15.523Z,2.13
2022-09-04T15:07:41.948Z,2.17
2022-09-04T15:10:50.336Z,2.13
2022-09-04T15:13:29.130Z,2.30
2022-09-04T15:16:10.862Z,2.15
2022-09-04T15:18:55.886Z,2.10
2022-09-04T15:21:31.226Z,2.20
2022-09-04T15:24:16.137Z,2.25
2022-09-04T15:26:46.783Z,2.10
2022-09-04T15:29:40.668Z,2.17
2022-09-04T15:32:14.008Z,2.15
2022-09-04T15:34:41.398Z,2.20
2022-09-04T15:37:11.085Z,1.90
2022-09-04T15:40:12.221Z,1.90
2022-09-04T15:42:44.370Z,2.10
2022-09-04T15:45:25.799Z,1.75
2022-09-04T15:48:21.201Z,2.10
2022-09-04T15:51:21.409Z,2.08
2022-09-04T15:54:13.216Z,2.00
2022-09-04T15:56:45.391Z,2.10
2022-09-04T15:59:21.516Z,2.10
2022-09-04T16:02:20.135Z,1.88
2022-09-04T16:05:19.477Z,2.13
2022-09-04T16:08:09.953Z,1.90
2022-09-04T16:10:46.651Z,1.83
2022-09-04T16:13:25.247Z,2.13
2022-09-04T16:16:19.566Z,2.20
2022-09-04T16:19:00.055Z,2.22
2022-09-04T16:21:44.476Z,1.63
2022-09-04T16:24:25.672Z,2.30
2022-09-04T16:26:54.598Z,2.03
2022-09-04T16:29:36.404Z,2.10
2022-09-04T16:32:07.075Z,1.77
2022-09-04T16:34:43.342Z,1.95
2022-09-04T16:37:38.725Z,1.95
2022-09-04T16:40:24.749Z,2.05
2022-09-04T16:42:59.991Z,1.90
2022-09-04T16:45:48.533Z,2.17
2022-09-04T16:48:34.849Z,2.22
2022-09-04T16:51:39.118Z,2.28
2022-09-04T16:54:16.940Z,2.15
2022-09-04T16:56:50.691Z,2.38
2022-09-04T16:59:41.929Z,2.53
2022-09-04T17:02:30.760Z,1.80
2022-09-04T17:05:10.465Z,2.33
2022-09-04T17:07:44.166Z,2.47
2022-09-04T17:10:36.570Z,2.40
2022-09-04T17:13:21.232Z,1.88
2022-09-04T17:16:02.305Z,2.00
2022-09-04T17:18:30.737Z,2.28
2022-09-04T17:28:56.266Z,1.80
2022-09-04T17:29:07.540Z,2.10
2022-09-04T17:29:55.996Z,2.08
2022-09-04T17:36:45.140Z,1.80
2022-09-04T17:40:40.468Z,2.05
2022-09-04T17:40:44.479Z,2.40
2022-09-04T17:41:47.355Z,1.77
2022-09-04T17:44:25.401Z,2.20
2022-09-04T17:47:09.270Z,2.20
2022-09-04T17:49:43.561Z,2.50
2022-09-04T17:52:11.843Z,2.30
2022-09-04T17:54:49.199Z,2.20
2022-09-04T17:57:37.377Z,2.40
2022-09-04T18:00:10.203Z,2.40
2022-09-04T18:02:49.077Z,2.40
2022-09-04T18:05:15.682Z,2.50
2022-09-04T18:08:09.305Z,2.20
2022-09-04T18:10:57.983Z,2.30
2022-09-04T18:13:52.082Z,2.40
2022-09-04T18:16:26.987Z,2.13
2022-09-04T18:18:58.150Z,2.30
2022-09-04T18:21:41.362Z,2.30
2022-09-04T18:24:26.576Z,3.40
2022-09-04T18:27:08.271Z,2.75
2022-09-04T18:32:48.562Z,2.55
2022-09-04T18:37:21.673Z,2.88
2022-09-04T18:39:08.992Z,2.90
2022-09-04T18:47:41.632Z,2.75
2022-09-04T18:50:30.547Z,2.88
2022-09-04T18:50:38.909Z,2.50
2022-09-04T18:51:19.559Z,2.22
2022-09-04T18:53:44.100Z,2.70
2022-09-04T18:56:20.768Z,2.95
2022-09-04T18:58:57.241Z,2.78
2022-09-04T19:01:31.545Z,2.67
2022-09-04T19:04:26.243Z,3.33
2022-09-04T19:07:07.514Z,2.90
2022-09-04T19:10:16.240Z,2.78
2022-09-04T19:12:53.810Z,3.42
2022-09-04T19:15:45.732Z,3.25
2022-09-04T19:18:43.749Z,2.92
2022-09-04T19:21:13.404Z,2.63
2022-09-04T19:24:00.987Z,2.80
2022-09-04T19:26:36.279Z,3.10
2022-09-04T19:29:15.279Z,3.10
2022-09-04T19:31:59.453Z,4.07
2022-09-04T19:34:37.620Z,4.65
2022-09-04T19:38:04.383Z,5.03
2022-09-04T19:45:57.246Z,4.13
2022-09-04T19:46:06.215Z,4.70
2022-09-04T19:46:28.250Z,4.47
2022-09-04T19:51:09.406Z,4.10
2022-09-04T19:53:34.225Z,5.40
2022-09-04T19:55:23.059Z,4.65
2022-09-04T19:58:04.102Z,4.88
2022-09-04T20:00:43.576Z,4.40
2022-09-04T20:03:30.554Z,3.70
2022-09-04T20:06:20.663Z,4.32
2022-09-04T20:09:05.463Z,4.43
2022-09-04T20:11:38.615Z,4.00
2022-09-04T20:14:37.550Z,4.47
2022-09-04T20:17:41.760Z,4.80
2022-09-04T20:20:21.231Z,5.75
2022-09-04T20:23:00.538Z,5.10
2022-09-04T20:25:55.804Z,4.38
2022-09-04T20:28:36.459Z,4.22
2022-09-04T20:31:35.899Z,4.18
2022-09-04T20:34:18.368Z,4.28
2022-09-04T20:36:51.205Z,3.67
2022-09-04T20:39:26.328Z,4.35
2022-09-04T20:42:04.658Z,3.55
2022-09-04T20:44:44.464Z,3.63
2022-09-04T20:52:42.144Z,3.42
2022-09-04T20:52:52.982Z,3.13
2022-09-04T20:53:48.052Z,3.70
2022-09-04T20:58:28.229Z,4.03
2022-09-04T21:03:09.704Z,3.47
2022-09-04T21:03:20.357Z,3.63
2022-09-04T21:06:12.668Z,3.83
2022-09-04T21:08:58.190Z,3.63
2022-09-04T21:11:41.027Z,4.75
2022-09-04T21:14:45.537Z,4.10
2022-09-04T21:17:35.931Z,3.78
2022-09-04T21:20:27.446Z,4.65
2022-09-04T21:23:46.377Z,4.43
2022-09-04T21:26:33.762Z,3.80
2022-09-04T21:29:30.475Z,4.22
2022-09-04T21:32:18.753Z,4.30
2022-09-04T21:37:39.856Z,4.15
2022-09-04T21:40:50.044Z,4.20
2022-09-04T21:43:37.867Z,5.20
2022-09-04T21:46:38.452Z,5.10
2022-09-04T21:49:26.467Z,4.25
2022-09-04T21:52:31.078Z,4.00
2022-09-04T21:57:49.075Z,4.22
2022-09-04T22:02:27.397Z,4.60
2022-09-04T22:02:43.087Z,4.10
2022-09-04T22:04:25.634Z,4.70
2022-09-04T22:08:36.348Z,4.40
2022-09-04T22:13:29.477Z,4.20
2022-09-04T22:13:38.857Z,3.83
2022-09-04T22:16:31.534Z,4.40
2022-09-04T22:19:27.586Z,4.50
2022-09-04T22:22:03.538Z,4.32
2022-09-04T22:24:58.004Z,4.82
2022-09-04T22:27:30.581Z,5.32
2022-09-04T22:30:10.184Z,4.60
2022-09-04T22:33:08.918Z,4.38
2022-09-04T22:36:13.240Z,4.30
2022-09-04T22:39:04.161Z,3.95
2022-09-04T22:42:18.802Z,4.88
2022-09-04T22:45:12.512Z,4.60
2022-09-04T22:48:06.961Z,4.32
2022-09-04T22:50:49.303Z,3.92
2022-09-04T22:53:31.654Z,3.85
2022-09-04T22:56:09.847Z,4.03
2022-09-04T22:59:07.651Z,4.13
2022-09-04T23:02:15.431Z,4.13
2022-09-04T23:04:45.421Z,4.50
2022-09-04T23:13:22.025Z,4.28
2022-09-04T23:13:52.086Z,4.53
2022-09-04T23:14:05.233Z,4.55
2022-09-04T23:16:53.780Z,4.53
2022-09-04T23:25:56.835Z,4.00
2022-09-04T23:26:35.967Z,4.90
2022-09-04T23:26:44.996Z,4.68
2022-09-04T23:29:44.436Z,4.55
2022-09-04T23:32:32.793Z,4.53
2022-09-04T23:38:00.875Z,4.35
2022-09-04T23:40:51.171Z,4.20
2022-09-04T23:43:39.502Z,4.80
2022-09-04T23:48:56.442Z,4.05
2022-09-04T23:51:50.161Z,4.43
2022-09-04T23:54:53.007Z,4.25
2022-09-04T23:57:40.237Z,4.72
